sensor_id;sensor_type;location;lat;lon;timestamp;P1;durP1;ratioP1;P2;durP2;ratioP2
25567;SDS011;13455;51.480;7.594;2023-09-08T00:02:18;7.72;;;5.07;;
25567;SDS011;13455;51.480;7.594;2023-09-08T00:04:43;7.13;;;5.10;;
25567;SDS011;13455;51.480;7.594;2023-09-08T00:07:09;7.30;;;5.38;;
25567;SDS011;13455;51.480;7.594;2023-09-08T00:09:34;9.10;;;5.10;;
25567;SDS011;13455;51.480;7.594;2023-09-08T00:12:00;8.93;;;5.20;;
25567;SDS011;13455;51.480;7.594;2023-09-08T00:14:26;8.70;;;5.20;;
25567;SDS011;13455;51.480;7.594;2023-09-08T00:16:52;7.93;;;5.78;;
25567;SDS011;13455;51.480;7.594;2023-09-08T00:19:20;10.40;;;5.65;;
25567;SDS011;13455;51.480;7.594;2023-09-08T00:21:46;9.23;;;5.60;;
25567;SDS011;13455;51.480;7.594;2023-09-08T00:24:12;7.97;;;5.35;;
25567;SDS011;13455;51.480;7.594;2023-09-08T00:26:37;7.83;;;5.70;;
25567;SDS011;13455;51.480;7.594;2023-09-08T00:29:03;8.57;;;5.53;;
25567;SDS011;13455;51.480;7.594;2023-09-08T00:31:28;8.68;;;5.65;;
25567;SDS011;13455;51.480;7.594;2023-09-08T00:33:54;7.23;;;5.47;;
25567;SDS011;13455;51.480;7.594;2023-09-08T00:36:20;9.75;;;5.80;;
25567;SDS011;13455;51.480;7.594;2023-09-08T00:38:45;7.05;;;5.40;;
25567;SDS011;13455;51.480;7.594;2023-09-08T00:41:11;8.17;;;5.40;;
25567;SDS011;13455;51.480;7.594;2023-09-08T00:43:36;8.82;;;5.28;;
25567;SDS011;13455;51.480;7.594;2023-09-08T00:46:02;7.17;;;5.20;;
25567;SDS011;13455;51.480;7.594;2023-09-08T00:48:28;7.80;;;5.43;;
25567;SDS011;13455;51.480;7.594;2023-09-08T00:50:55;7.60;;;5.70;;
25567;SDS011;13455;51.480;7.594;2023-09-08T00:53:21;10.37;;;5.60;;
25567;SDS011;13455;51.480;7.594;2023-09-08T00:55:47;8.67;;;5.67;;
25567;SDS011;13455;51.480;7.594;2023-09-08T00:58:13;7.50;;;5.50;;
25567;SDS011;13455;51.480;7.594;2023-09-08T01:00:40;10.40;;;6.00;;
25567;SDS011;13455;51.480;7.594;2023-09-08T01:03:06;8.65;;;5.70;;
25567;SDS011;13455;51.480;7.594;2023-09-08T01:05:32;8.95;;;5.70;;
25567;SDS011;13455;51.480;7.594;2023-09-08T01:07:59;8.15;;;5.88;;
25567;SDS011;13455;51.480;7.594;2023-09-08T01:10:25;8.82;;;5.90;;
25567;SDS011;13455;51.480;7.594;2023-09-08T01:12:51;8.40;;;6.03;;
25567;SDS011;13455;51.480;7.594;2023-09-08T01:15:17;7.97;;;5.68;;
25567;SDS011;13455;51.480;7.594;2023-09-08T01:17:43;11.97;;;6.10;;
25567;SDS011;13455;51.480;7.594;2023-09-08T01:25:33;8.52;;;5.60;;
25567;SDS011;13455;51.480;7.594;2023-09-08T01:28:01;8.70;;;5.60;;
25567;SDS011;13455;51.480;7.594;2023-09-08T01:30:28;7.75;;;5.43;;
25567;SDS011;13455;51.480;7.594;2023-09-08T01:32:57;8.45;;;5.78;;
25567;SDS011;13455;51.480;7.594;2023-09-08T01:35:24;8.70;;;5.90;;
25567;SDS011;13455;51.480;7.594;2023-09-08T01:37:50;7.07;;;5.50;;
25567;SDS011;13455;51.480;7.594;2023-09-08T01:40:16;8.85;;;5.35;;
25567;SDS011;13455;51.480;7.594;2023-09-08T01:42:44;9.32;;;5.07;;
25567;SDS011;13455;51.480;7.594;2023-09-08T01:45:10;8.43;;;4.95;;
25567;SDS011;13455;51.480;7.594;2023-09-08T01:47:37;6.68;;;4.80;;
25567;SDS011;13455;51.480;7.594;2023-09-08T01:50:03;7.55;;;4.80;;
25567;SDS011;13455;51.480;7.594;2023-09-08T01:52:29;6.05;;;4.63;;
25567;SDS011;13455;51.480;7.594;2023-09-08T01:54:55;6.72;;;5.00;;
25567;SDS011;13455;51.480;7.594;2023-09-08T01:57:21;9.45;;;5.03;;
25567;SDS011;13455;51.480;7.594;2023-09-08T01:59:47;7.82;;;5.05;;
25567;SDS011;13455;51.480;7.594;2023-09-08T02:02:13;7.70;;;5.00;;
25567;SDS011;13455;51.480;7.594;2023-09-08T02:04:39;8.93;;;5.10;;
25567;SDS011;13455;51.480;7.594;2023-09-08T02:07:05;9.97;;;5.00;;
25567;SDS011;13455;51.480;7.594;2023-09-08T02:09:32;7.33;;;5.40;;
25567;SDS011;13455;51.480;7.594;2023-09-08T02:11:58;8.40;;;5.22;;
25567;SDS011;13455;51.480;7.594;2023-09-08T02:14:24;9.80;;;5.55;;
25567;SDS011;13455;51.480;7.594;2023-09-08T02:16:50;7.53;;;5.43;;
25567;SDS011;13455;51.480;7.594;2023-09-08T02:19:16;9.18;;;5.70;;
25567;SDS011;13455;51.480;7.594;2023-09-08T02:21:42;9.33;;;5.83;;
25567;SDS011;13455;51.480;7.594;2023-09-08T02:24:08;10.13;;;6.07;;
25567;SDS011;13455;51.480;7.594;2023-09-08T02:26:34;10.25;;;5.97;;
25567;SDS011;13455;51.480;7.594;2023-09-08T02:29:00;10.35;;;6.40;;
25567;SDS011;13455;51.480;7.594;2023-09-08T02:31:27;11.77;;;6.20;;
25567;SDS011;13455;51.480;7.594;2023-09-08T02:33:53;7.60;;;6.32;;
25567;SDS011;13455;51.480;7.594;2023-09-08T02:36:19;10.18;;;6.25;;
25567;SDS011;13455;51.480;7.594;2023-09-08T02:38:54;9.43;;;6.30;;
25567;SDS011;13455;51.480;7.594;2023-09-08T02:41:20;9.95;;;6.28;;
25567;SDS011;13455;51.480;7.594;2023-09-08T02:43:47;10.38;;;6.40;;
25567;SDS011;13455;51.480;7.594;2023-09-08T02:46:13;10.57;;;6.00;;
25567;SDS011;13455;51.480;7.594;2023-09-08T02:48:39;9.20;;;6.20;;
25567;SDS011;13455;51.480;7.594;2023-09-08T02:51:05;8.10;;;6.18;;
25567;SDS011;13455;51.480;7.594;2023-09-08T02:53:31;7.40;;;5.80;;
25567;SDS011;13455;51.480;7.594;2023-09-08T02:55:57;8.57;;;6.25;;
25567;SDS011;13455;51.480;7.594;2023-09-08T02:58:24;9.15;;;6.63;;
25567;SDS011;13455;51.480;7.594;2023-09-08T03:00:50;8.50;;;6.15;;
25567;SDS011;13455;51.480;7.594;2023-09-08T03:03:17;9.95;;;6.32;;
25567;SDS011;13455;51.480;7.594;2023-09-08T03:05:43;10.55;;;6.30;;
25567;SDS011;13455;51.480;7.594;2023-09-08T03:08:10;9.83;;;6.40;;
25567;SDS011;13455;51.480;7.594;2023-09-08T03:10:36;8.80;;;6.37;;
25567;SDS011;13455;51.480;7.594;2023-09-08T03:13:02;8.10;;;6.07;;
25567;SDS011;13455;51.480;7.594;2023-09-08T03:15:28;7.57;;;5.93;;
25567;SDS011;13455;51.480;7.594;2023-09-08T03:17:54;8.43;;;6.13;;
25567;SDS011;13455;51.480;7.594;2023-09-08T03:20:21;8.47;;;5.73;;
25567;SDS011;13455;51.480;7.594;2023-09-08T03:22:47;7.63;;;5.80;;
25567;SDS011;13455;51.480;7.594;2023-09-08T03:25:13;8.38;;;5.78;;
25567;SDS011;13455;51.480;7.594;2023-09-08T03:27:40;8.68;;;5.20;;
25567;SDS011;13455;51.480;7.594;2023-09-08T03:30:06;8.90;;;5.28;;
25567;SDS011;13455;51.480;7.594;2023-09-08T03:32:32;8.57;;;5.00;;
25567;SDS011;13455;51.480;7.594;2023-09-08T03:34:58;8.40;;;5.00;;
25567;SDS011;13455;51.480;7.594;2023-09-08T03:37:24;7.35;;;4.85;;
25567;SDS011;13455;51.480;7.594;2023-09-08T03:39:53;10.30;;;5.10;;
25567;SDS011;13455;51.480;7.594;2023-09-08T03:42:19;7.70;;;5.27;;
25567;SDS011;13455;51.480;7.594;2023-09-08T03:44:45;6.40;;;4.77;;
25567;SDS011;13455;51.480;7.594;2023-09-08T03:47:11;5.90;;;4.90;;
25567;SDS011;13455;51.480;7.594;2023-09-08T03:49:37;9.20;;;5.40;;
25567;SDS011;13455;51.480;7.594;2023-09-08T03:52:03;10.13;;;5.30;;
25567;SDS011;13455;51.480;7.594;2023-09-08T03:54:29;8.07;;;5.10;;
25567;SDS011;13455;51.480;7.594;2023-09-08T03:56:55;8.90;;;5.45;;
25567;SDS011;13455;51.480;7.594;2023-09-08T03:59:21;7.85;;;4.90;;
25567;SDS011;13455;51.480;7.594;2023-09-08T04:01:47;7.68;;;5.07;;
25567;SDS011;13455;51.480;7.594;2023-09-08T04:04:13;7.10;;;5.00;;
25567;SDS011;13455;51.480;7.594;2023-09-08T04:06:39;7.00;;;4.80;;
25567;SDS011;13455;51.480;7.594;2023-09-08T04:09:05;10.70;;;5.22;;
25567;SDS011;13455;51.480;7.594;2023-09-08T04:11:31;7.50;;;5.10;;
25567;SDS011;13455;51.480;7.594;2023-09-08T04:13:57;7.88;;;4.82;;
25567;SDS011;13455;51.480;7.594;2023-09-08T04:16:23;7.97;;;4.95;;
25567;SDS011;13455;51.480;7.594;2023-09-08T04:18:49;9.38;;;5.00;;
25567;SDS011;13455;51.480;7.594;2023-09-08T04:21:15;7.88;;;4.90;;
25567;SDS011;13455;51.480;7.594;2023-09-08T04:23:41;8.60;;;5.20;;
25567;SDS011;13455;51.480;7.594;2023-09-08T04:26:07;8.35;;;5.10;;
25567;SDS011;13455;51.480;7.594;2023-09-08T04:28:33;6.55;;;4.78;;
25567;SDS011;13455;51.480;7.594;2023-09-08T04:30:59;7.15;;;5.20;;
25567;SDS011;13455;51.480;7.594;2023-09-08T04:33:25;6.57;;;5.03;;
25567;SDS011;13455;51.480;7.594;2023-09-08T04:35:51;7.57;;;5.23;;
25567;SDS011;13455;51.480;7.594;2023-09-08T04:38:17;8.10;;;5.30;;
25567;SDS011;13455;51.480;7.594;2023-09-08T04:40:45;8.23;;;5.47;;
25567;SDS011;13455;51.480;7.594;2023-09-08T04:43:11;11.10;;;5.60;;
25567;SDS011;13455;51.480;7.594;2023-09-08T04:45:37;7.85;;;5.70;;
25567;SDS011;13455;51.480;7.594;2023-09-08T04:48:04;7.60;;;5.88;;
25567;SDS011;13455;51.480;7.594;2023-09-08T04:50:30;8.95;;;5.85;;
25567;SDS011;13455;51.480;7.594;2023-09-08T04:52:56;10.52;;;6.32;;
25567;SDS011;13455;51.480;7.594;2023-09-08T04:55:22;8.82;;;6.15;;
25567;SDS011;13455;51.480;7.594;2023-09-08T04:57:48;8.77;;;5.90;;
25567;SDS011;13455;51.480;7.594;2023-09-08T05:00:14;10.67;;;6.10;;
25567;SDS011;13455;51.480;7.594;2023-09-08T05:02:40;9.82;;;6.40;;
25567;SDS011;13455;51.480;7.594;2023-09-08T05:05:06;9.15;;;6.25;;
25567;SDS011;13455;51.480;7.594;2023-09-08T05:07:32;8.35;;;6.20;;
25567;SDS011;13455;51.480;7.594;2023-09-08T05:09:58;9.13;;;6.55;;
25567;SDS011;13455;51.480;7.594;2023-09-08T05:12:24;9.77;;;6.30;;
25567;SDS011;13455;51.480;7.594;2023-09-08T05:14:50;8.05;;;6.20;;
25567;SDS011;13455;51.480;7.594;2023-09-08T05:17:20;9.23;;;7.00;;
25567;SDS011;13455;51.480;7.594;2023-09-08T05:19:46;9.33;;;6.73;;
25567;SDS011;13455;51.480;7.594;2023-09-08T05:22:12;10.70;;;7.22;;
25567;SDS011;13455;51.480;7.594;2023-09-08T05:24:39;9.77;;;7.00;;
25567;SDS011;13455;51.480;7.594;2023-09-08T05:27:04;10.20;;;7.20;;
25567;SDS011;13455;51.480;7.594;2023-09-08T05:29:30;9.33;;;6.50;;
25567;SDS011;13455;51.480;7.594;2023-09-08T05:31:56;9.63;;;6.33;;
25567;SDS011;13455;51.480;7.594;2023-09-08T05:34:22;8.40;;;6.40;;
25567;SDS011;13455;51.480;7.594;2023-09-08T05:36:48;9.63;;;6.57;;
25567;SDS011;13455;51.480;7.594;2023-09-08T05:39:14;9.57;;;6.13;;
25567;SDS011;13455;51.480;7.594;2023-09-08T05:41:41;11.30;;;6.13;;
25567;SDS011;13455;51.480;7.594;2023-09-08T05:44:07;9.82;;;6.30;;
25567;SDS011;13455;51.480;7.594;2023-09-08T05:46:33;10.88;;;6.50;;
25567;SDS011;13455;51.480;7.594;2023-09-08T05:48:59;10.38;;;6.45;;
25567;SDS011;13455;51.480;7.594;2023-09-08T05:51:25;9.35;;;6.10;;
25567;SDS011;13455;51.480;7.594;2023-09-08T05:53:51;8.85;;;6.38;;
25567;SDS011;13455;51.480;7.594;2023-09-08T05:56:18;11.73;;;6.30;;
25567;SDS011;13455;51.480;7.594;2023-09-08T05:58:44;9.75;;;6.47;;
25567;SDS011;13455;51.480;7.594;2023-09-08T06:01:10;10.82;;;6.28;;
25567;SDS011;13455;51.480;7.594;2023-09-08T06:03:36;9.73;;;6.22;;
25567;SDS011;13455;51.480;7.594;2023-09-08T06:06:02;9.30;;;6.10;;
25567;SDS011;13455;51.480;7.594;2023-09-08T06:08:28;9.40;;;6.22;;
25567;SDS011;13455;51.480;7.594;2023-09-08T06:10:54;9.02;;;6.05;;
25567;SDS011;13455;51.480;7.594;2023-09-08T06:13:20;8.57;;;6.05;;
25567;SDS011;13455;51.480;7.594;2023-09-08T06:15:46;7.43;;;5.60;;
25567;SDS011;13455;51.480;7.594;2023-09-08T06:18:12;8.20;;;5.68;;
25567;SDS011;13455;51.480;7.594;2023-09-08T06:20:47;8.68;;;5.90;;
25567;SDS011;13455;51.480;7.594;2023-09-08T06:23:14;9.20;;;6.00;;
25567;SDS011;13455;51.480;7.594;2023-09-08T06:25:40;10.20;;;5.80;;
25567;SDS011;13455;51.480;7.594;2023-09-08T06:28:06;7.95;;;5.70;;
25567;SDS011;13455;51.480;7.594;2023-09-08T06:30:32;8.32;;;5.75;;
25567;SDS011;13455;51.480;7.594;2023-09-08T06:32:58;9.20;;;5.45;;
25567;SDS011;13455;51.480;7.594;2023-09-08T06:35:25;9.55;;;5.82;;
25567;SDS011;13455;51.480;7.594;2023-09-08T06:37:52;9.68;;;5.60;;
25567;SDS011;13455;51.480;7.594;2023-09-08T06:40:17;10.10;;;5.77;;
25567;SDS011;13455;51.480;7.594;2023-09-08T06:42:43;11.93;;;5.55;;
25567;SDS011;13455;51.480;7.594;2023-09-08T06:45:08;9.77;;;5.53;;
25567;SDS011;13455;51.480;7.594;2023-09-08T06:47:34;10.00;;;5.53;;
25567;SDS011;13455;51.480;7.594;2023-09-08T06:50:00;7.97;;;5.60;;
25567;SDS011;13455;51.480;7.594;2023-09-08T06:52:25;10.85;;;5.63;;
25567;SDS011;13455;51.480;7.594;2023-09-08T06:54:51;9.07;;;5.50;;
25567;SDS011;13455;51.480;7.594;2023-09-08T06:57:20;11.20;;;5.43;;
25567;SDS011;13455;51.480;7.594;2023-09-08T06:59:45;8.13;;;5.20;;
25567;SDS011;13455;51.480;7.594;2023-09-08T07:02:11;8.47;;;5.30;;
25567;SDS011;13455;51.480;7.594;2023-09-08T07:04:37;9.87;;;5.40;;
25567;SDS011;13455;51.480;7.594;2023-09-08T07:07:02;8.38;;;5.18;;
25567;SDS011;13455;51.480;7.594;2023-09-08T07:09:32;7.53;;;5.00;;
25567;SDS011;13455;51.480;7.594;2023-09-08T07:11:58;11.27;;;5.47;;
25567;SDS011;13455;51.480;7.594;2023-09-08T07:14:24;8.13;;;5.57;;
25567;SDS011;13455;51.480;7.594;2023-09-08T07:16:50;8.33;;;5.43;;
25567;SDS011;13455;51.480;7.594;2023-09-08T07:19:16;9.55;;;5.70;;
25567;SDS011;13455;51.480;7.594;2023-09-08T07:21:41;8.50;;;5.40;;
25567;SDS011;13455;51.480;7.594;2023-09-08T07:24:07;8.65;;;5.05;;
25567;SDS011;13455;51.480;7.594;2023-09-08T07:26:33;8.13;;;5.13;;
25567;SDS011;13455;51.480;7.594;2023-09-08T07:28:59;9.37;;;4.90;;
25567;SDS011;13455;51.480;7.594;2023-09-08T07:31:25;9.32;;;4.95;;
25567;SDS011;13455;51.480;7.594;2023-09-08T07:33:50;8.48;;;4.68;;
25567;SDS011;13455;51.480;7.594;2023-09-08T07:36:16;10.83;;;5.30;;
25567;SDS011;13455;51.480;7.594;2023-09-08T07:38:41;11.05;;;5.05;;
25567;SDS011;13455;51.480;7.594;2023-09-08T07:41:07;10.60;;;5.20;;
25567;SDS011;13455;51.480;7.594;2023-09-08T07:43:33;10.13;;;5.10;;
25567;SDS011;13455;51.480;7.594;2023-09-08T07:45:59;7.97;;;5.05;;
25567;SDS011;13455;51.480;7.594;2023-09-08T07:48:24;8.80;;;4.67;;
25567;SDS011;13455;51.480;7.594;2023-09-08T07:50:50;10.18;;;5.10;;
25567;SDS011;13455;51.480;7.594;2023-09-08T07:53:16;9.18;;;4.80;;
25567;SDS011;13455;51.480;7.594;2023-09-08T07:55:41;9.57;;;4.87;;
25567;SDS011;13455;51.480;7.594;2023-09-08T07:58:07;8.88;;;5.07;;
25567;SDS011;13455;51.480;7.594;2023-09-08T08:00:33;11.05;;;4.90;;
25567;SDS011;13455;51.480;7.594;2023-09-08T08:02:59;8.48;;;4.68;;
25567;SDS011;13455;51.480;7.594;2023-09-08T08:05:25;10.00;;;5.03;;
25567;SDS011;13455;51.480;7.594;2023-09-08T08:07:51;9.10;;;4.67;;
25567;SDS011;13455;51.480;7.594;2023-09-08T08:10:18;5.72;;;4.40;;
25567;SDS011;13455;51.480;7.594;2023-09-08T08:12:44;10.25;;;4.40;;
25567;SDS011;13455;51.480;7.594;2023-09-08T08:15:10;8.18;;;4.53;;
25567;SDS011;13455;51.480;7.594;2023-09-08T08:17:36;7.88;;;4.60;;
25567;SDS011;13455;51.480;7.594;2023-09-08T08:20:03;7.55;;;4.50;;
25567;SDS011;13455;51.480;7.594;2023-09-08T08:22:34;7.38;;;4.15;;
25567;SDS011;13455;51.480;7.594;2023-09-08T08:25:03;9.88;;;4.35;;
25567;SDS011;13455;51.480;7.594;2023-09-08T08:27:29;6.57;;;3.87;;
25567;SDS011;13455;51.480;7.594;2023-09-08T08:29:58;9.88;;;4.45;;
25567;SDS011;13455;51.480;7.594;2023-09-08T08:32:25;7.90;;;4.22;;
25567;SDS011;13455;51.480;7.594;2023-09-08T08:34:51;8.23;;;4.15;;
25567;SDS011;13455;51.480;7.594;2023-09-08T08:37:17;8.32;;;4.20;;
25567;SDS011;13455;51.480;7.594;2023-09-08T08:39:43;6.07;;;3.92;;
25567;SDS011;13455;51.480;7.594;2023-09-08T08:42:10;8.90;;;4.20;;
25567;SDS011;13455;51.480;7.594;2023-09-08T08:44:37;6.68;;;4.00;;
25567;SDS011;13455;51.480;7.594;2023-09-08T08:47:03;6.30;;;4.07;;
25567;SDS011;13455;51.480;7.594;2023-09-08T08:49:34;8.13;;;4.20;;
25567;SDS011;13455;51.480;7.594;2023-09-08T08:52:01;7.10;;;4.20;;
25567;SDS011;13455;51.480;7.594;2023-09-08T08:54:33;8.68;;;4.40;;
25567;SDS011;13455;51.480;7.594;2023-09-08T08:57:00;7.55;;;4.15;;
25567;SDS011;13455;51.480;7.594;2023-09-08T08:59:27;6.25;;;3.90;;
25567;SDS011;13455;51.480;7.594;2023-09-08T09:01:53;7.50;;;3.90;;
25567;SDS011;13455;51.480;7.594;2023-09-08T09:04:19;8.82;;;4.28;;
25567;SDS011;13455;51.480;7.594;2023-09-08T09:06:46;8.07;;;3.90;;
25567;SDS011;13455;51.480;7.594;2023-09-08T09:09:12;8.95;;;4.10;;
25567;SDS011;13455;51.480;7.594;2023-09-08T09:11:39;7.63;;;3.70;;
25567;SDS011;13455;51.480;7.594;2023-09-08T09:14:05;5.53;;;3.80;;
25567;SDS011;13455;51.480;7.594;2023-09-08T09:16:31;7.20;;;4.00;;
25567;SDS011;13455;51.480;7.594;2023-09-08T09:19:04;6.17;;;3.93;;
25567;SDS011;13455;51.480;7.594;2023-09-08T09:21:45;6.20;;;3.90;;
25567;SDS011;13455;51.480;7.594;2023-09-08T09:24:32;8.73;;;4.00;;
25567;SDS011;13455;51.480;7.594;2023-09-08T09:26:59;7.17;;;4.00;;
25567;SDS011;13455;51.480;7.594;2023-09-08T09:29:26;8.48;;;3.90;;
25567;SDS011;13455;51.480;7.594;2023-09-08T09:34:20;7.65;;;3.80;;
25567;SDS011;13455;51.480;7.594;2023-09-08T09:36:47;8.02;;;3.92;;
25567;SDS011;13455;51.480;7.594;2023-09-08T09:39:16;8.07;;;4.28;;
25567;SDS011;13455;51.480;7.594;2023-09-08T09:41:43;5.47;;;4.05;;
25567;SDS011;13455;51.480;7.594;2023-09-08T09:44:09;7.93;;;4.10;;
25567;SDS011;13455;51.480;7.594;2023-09-08T09:46:36;5.50;;;3.65;;
25567;SDS011;13455;51.480;7.594;2023-09-08T09:49:02;6.85;;;3.50;;
25567;SDS011;13455;51.480;7.594;2023-09-08T09:51:28;6.75;;;3.47;;
25567;SDS011;13455;51.480;7.594;2023-09-08T09:53:54;8.33;;;3.60;;
25567;SDS011;13455;51.480;7.594;2023-09-08T09:56:20;5.47;;;3.30;;
25567;SDS011;13455;51.480;7.594;2023-09-08T09:58:48;6.63;;;3.20;;
25567;SDS011;13455;51.480;7.594;2023-09-08T10:01:14;4.88;;;3.20;;
25567;SDS011;13455;51.480;7.594;2023-09-08T10:03:41;5.80;;;3.30;;
25567;SDS011;13455;51.480;7.594;2023-09-08T10:06:08;5.10;;;3.08;;
25567;SDS011;13455;51.480;7.594;2023-09-08T10:08:35;5.33;;;3.03;;
25567;SDS011;13455;51.480;7.594;2023-09-08T10:11:04;5.80;;;3.20;;
25567;SDS011;13455;51.480;7.594;2023-09-08T10:13:33;5.57;;;3.00;;
25567;SDS011;13455;51.480;7.594;2023-09-08T10:15:59;5.10;;;3.25;;
25567;SDS011;13455;51.480;7.594;2023-09-08T10:18:26;6.20;;;3.28;;
25567;SDS011;13455;51.480;7.594;2023-09-08T10:20:53;6.10;;;3.38;;
25567;SDS011;13455;51.480;7.594;2023-09-08T10:23:22;5.07;;;3.10;;
25567;SDS011;13455;51.480;7.594;2023-09-08T10:25:50;4.25;;;2.97;;
25567;SDS011;13455;51.480;7.594;2023-09-08T10:28:19;5.63;;;3.60;;
25567;SDS011;13455;51.480;7.594;2023-09-08T10:30:47;5.68;;;3.30;;
25567;SDS011;13455;51.480;7.594;2023-09-08T10:33:13;6.15;;;3.20;;
25567;SDS011;13455;51.480;7.594;2023-09-08T10:35:41;4.78;;;3.20;;
25567;SDS011;13455;51.480;7.594;2023-09-08T10:40:52;4.80;;;3.30;;
25567;SDS011;13455;51.480;7.594;2023-09-08T10:43:18;6.90;;;3.20;;
25567;SDS011;13455;51.480;7.594;2023-09-08T10:45:45;9.30;;;3.27;;
25567;SDS011;13455;51.480;7.594;2023-09-08T10:48:11;5.72;;;3.13;;
25567;SDS011;13455;51.480;7.594;2023-09-08T10:50:39;4.85;;;3.03;;
25567;SDS011;13455;51.480;7.594;2023-09-08T10:55:39;5.05;;;3.08;;
25567;SDS011;13455;51.480;7.594;2023-09-08T10:58:08;4.90;;;3.00;;
25567;SDS011;13455;51.480;7.594;2023-09-08T11:00:50;5.70;;;3.17;;
25567;SDS011;13455;51.480;7.594;2023-09-08T11:03:26;7.72;;;3.47;;
25567;SDS011;13455;51.480;7.594;2023-09-08T11:05:52;6.00;;;3.28;;
25567;SDS011;13455;51.480;7.594;2023-09-08T11:08:18;5.73;;;3.03;;
25567;SDS011;13455;51.480;7.594;2023-09-08T11:10:47;6.10;;;3.20;;
25567;SDS011;13455;51.480;7.594;2023-09-08T11:13:13;6.43;;;3.13;;
25567;SDS011;13455;51.480;7.594;2023-09-08T11:15:41;7.38;;;3.17;;
25567;SDS011;13455;51.480;7.594;2023-09-08T11:18:07;8.07;;;3.40;;
25567;SDS011;13455;51.480;7.594;2023-09-08T11:20:33;6.60;;;3.03;;
25567;SDS011;13455;51.480;7.594;2023-09-08T11:22:59;6.30;;;3.00;;
25567;SDS011;13455;51.480;7.594;2023-09-08T11:25:25;5.90;;;3.10;;
25567;SDS011;13455;51.480;7.594;2023-09-08T11:27:51;5.65;;;3.10;;
25567;SDS011;13455;51.480;7.594;2023-09-08T11:30:17;5.97;;;3.00;;
25567;SDS011;13455;51.480;7.594;2023-09-08T11:32:43;4.10;;;2.80;;
25567;SDS011;13455;51.480;7.594;2023-09-08T11:35:09;5.07;;;3.00;;
25567;SDS011;13455;51.480;7.594;2023-09-08T11:37:36;7.28;;;3.15;;
25567;SDS011;13455;51.480;7.594;2023-09-08T11:40:03;4.57;;;2.80;;
25567;SDS011;13455;51.480;7.594;2023-09-08T11:42:39;8.13;;;3.00;;
25567;SDS011;13455;51.480;7.594;2023-09-08T11:45:18;6.33;;;2.80;;
25567;SDS011;13455;51.480;7.594;2023-09-08T11:47:47;5.50;;;2.63;;
25567;SDS011;13455;51.480;7.594;2023-09-08T11:50:18;5.30;;;2.73;;
25567;SDS011;13455;51.480;7.594;2023-09-08T11:52:44;4.93;;;2.72;;
25567;SDS011;13455;51.480;7.594;2023-09-08T11:55:11;6.00;;;2.90;;
25567;SDS011;13455;51.480;7.594;2023-09-08T11:57:38;5.25;;;2.80;;
25567;SDS011;13455;51.480;7.594;2023-09-08T12:00:05;4.17;;;2.80;;
25567;SDS011;13455;51.480;7.594;2023-09-08T12:02:34;5.55;;;2.70;;
25567;SDS011;13455;51.480;7.594;2023-09-08T12:05:01;4.00;;;2.70;;
25567;SDS011;13455;51.480;7.594;2023-09-08T12:07:28;7.32;;;2.67;;
25567;SDS011;13455;51.480;7.594;2023-09-08T12:09:54;4.70;;;2.83;;
25567;SDS011;13455;51.480;7.594;2023-09-08T12:12:19;5.83;;;2.80;;
25567;SDS011;13455;51.480;7.594;2023-09-08T12:14:45;4.20;;;2.70;;
25567;SDS011;13455;51.480;7.594;2023-09-08T12:17:11;5.07;;;2.67;;
25567;SDS011;13455;51.480;7.594;2023-09-08T12:19:41;6.00;;;2.80;;
25567;SDS011;13455;51.480;7.594;2023-09-08T12:22:07;4.18;;;2.70;;
25567;SDS011;13455;51.480;7.594;2023-09-08T12:24:48;4.37;;;2.80;;
25567;SDS011;13455;51.480;7.594;2023-09-08T12:27:17;6.28;;;2.78;;
25567;SDS011;13455;51.480;7.594;2023-09-08T12:29:59;6.05;;;2.70;;
25567;SDS011;13455;51.480;7.594;2023-09-08T12:32:28;5.80;;;2.70;;
25567;SDS011;13455;51.480;7.594;2023-09-08T12:34:54;4.27;;;2.67;;
25567;SDS011;13455;51.480;7.594;2023-09-08T12:37:21;6.50;;;2.63;;
25567;SDS011;13455;51.480;7.594;2023-09-08T12:39:47;5.20;;;2.78;;
25567;SDS011;13455;51.480;7.594;2023-09-08T12:42:13;6.30;;;2.70;;
25567;SDS011;13455;51.480;7.594;2023-09-08T12:44:39;5.67;;;2.77;;
25567;SDS011;13455;51.480;7.594;2023-09-08T12:47:05;3.50;;;2.60;;
25567;SDS011;13455;51.480;7.594;2023-09-08T12:49:31;6.70;;;2.60;;
25567;SDS011;13455;51.480;7.594;2023-09-08T12:51:57;5.68;;;2.72;;
25567;SDS011;13455;51.480;7.594;2023-09-08T12:54:23;5.03;;;2.97;;
25567;SDS011;13455;51.480;7.594;2023-09-08T12:56:49;4.93;;;2.95;;
25567;SDS011;13455;51.480;7.594;2023-09-08T12:59:16;7.50;;;2.90;;
25567;SDS011;13455;51.480;7.594;2023-09-08T13:01:51;3.97;;;2.67;;
25567;SDS011;13455;51.480;7.594;2023-09-08T13:04:16;4.80;;;2.80;;
25567;SDS011;13455;51.480;7.594;2023-09-08T13:06:42;4.28;;;2.65;;
25567;SDS011;13455;51.480;7.594;2023-09-08T13:09:08;5.13;;;2.58;;
25567;SDS011;13455;51.480;7.594;2023-09-08T13:11:33;5.28;;;2.40;;
25567;SDS011;13455;51.480;7.594;2023-09-08T13:13:59;4.97;;;2.72;;
25567;SDS011;13455;51.480;7.594;2023-09-08T13:16:25;4.10;;;2.47;;
25567;SDS011;13455;51.480;7.594;2023-09-08T13:18:51;4.47;;;2.70;;
25567;SDS011;13455;51.480;7.594;2023-09-08T13:21:17;5.63;;;2.60;;
25567;SDS011;13455;51.480;7.594;2023-09-08T13:23:43;4.90;;;2.65;;
25567;SDS011;13455;51.480;7.594;2023-09-08T13:26:09;4.23;;;2.40;;
25567;SDS011;13455;51.480;7.594;2023-09-08T13:28:34;5.70;;;2.40;;
25567;SDS011;13455;51.480;7.594;2023-09-08T13:31:01;4.80;;;2.50;;
25567;SDS011;13455;51.480;7.594;2023-09-08T13:33:28;4.50;;;2.70;;
25567;SDS011;13455;51.480;7.594;2023-09-08T13:35:53;3.55;;;2.60;;
25567;SDS011;13455;51.480;7.594;2023-09-08T13:38:20;4.97;;;2.60;;
25567;SDS011;13455;51.480;7.594;2023-09-08T13:40:46;4.60;;;2.60;;
25567;SDS011;13455;51.480;7.594;2023-09-08T13:43:12;5.38;;;2.60;;
25567;SDS011;13455;51.480;7.594;2023-09-08T13:45:38;4.07;;;2.60;;
25567;SDS011;13455;51.480;7.594;2023-09-08T13:48:07;5.13;;;2.60;;
25567;SDS011;13455;51.480;7.594;2023-09-08T13:50:33;5.40;;;2.53;;
25567;SDS011;13455;51.480;7.594;2023-09-08T13:52:59;6.05;;;2.70;;
25567;SDS011;13455;51.480;7.594;2023-09-08T13:55:25;3.60;;;2.63;;
25567;SDS011;13455;51.480;7.594;2023-09-08T13:57:51;5.05;;;2.60;;
25567;SDS011;13455;51.480;7.594;2023-09-08T14:00:17;5.50;;;2.60;;
25567;SDS011;13455;51.480;7.594;2023-09-08T14:02:43;4.75;;;2.58;;
25567;SDS011;13455;51.480;7.594;2023-09-08T14:05:09;4.28;;;2.50;;
25567;SDS011;13455;51.480;7.594;2023-09-08T14:07:35;3.58;;;2.40;;
25567;SDS011;13455;51.480;7.594;2023-09-08T14:10:01;3.22;;;2.40;;
25567;SDS011;13455;51.480;7.594;2023-09-08T14:12:32;4.80;;;2.20;;
25567;SDS011;13455;51.480;7.594;2023-09-08T14:14:59;4.15;;;2.25;;
25567;SDS011;13455;51.480;7.594;2023-09-08T14:17:25;4.20;;;2.33;;
25567;SDS011;13455;51.480;7.594;2023-09-08T14:19:51;3.80;;;2.40;;
25567;SDS011;13455;51.480;7.594;2023-09-08T14:22:16;4.15;;;2.10;;
25567;SDS011;13455;51.480;7.594;2023-09-08T14:24:42;3.90;;;2.17;;
25567;SDS011;13455;51.480;7.594;2023-09-08T14:27:07;5.50;;;2.40;;
25567;SDS011;13455;51.480;7.594;2023-09-08T14:29:33;3.93;;;2.30;;
25567;SDS011;13455;51.480;7.594;2023-09-08T14:31:59;5.50;;;2.40;;
25567;SDS011;13455;51.480;7.594;2023-09-08T14:34:25;6.77;;;2.30;;
25567;SDS011;13455;51.480;7.594;2023-09-08T14:36:51;4.70;;;2.20;;
25567;SDS011;13455;51.480;7.594;2023-09-08T14:39:16;5.03;;;2.20;;
25567;SDS011;13455;51.480;7.594;2023-09-08T14:41:44;4.32;;;2.20;;
25567;SDS011;13455;51.480;7.594;2023-09-08T14:44:10;5.78;;;2.30;;
25567;SDS011;13455;51.480;7.594;2023-09-08T14:46:36;3.60;;;2.00;;
25567;SDS011;13455;51.480;7.594;2023-09-08T14:49:01;3.20;;;2.15;;
25567;SDS011;13455;51.480;7.594;2023-09-08T14:51:27;5.35;;;2.20;;
25567;SDS011;13455;51.480;7.594;2023-09-08T14:53:53;3.45;;;2.00;;
25567;SDS011;13455;51.480;7.594;2023-09-08T14:56:19;2.83;;;2.20;;